Time;durP1;ratioP1;P1;durP2;ratioP2;P2;SDS_P1;SDS_P2;PMS_P1;PMS_P2;Temp;Humidity;BMP_temperature;BMP_pressure;BME280_temperature;BME280_humidity;BME280_pressure;Samples;Min_cycle;Max_cycle;Signal;HPM_P1;HPM_P2
2023/07/21 00:03:35;;;;;;;3.17;2.88;;;;;;;17.50;61.85;100163.69;20674558;28;20214;-80
2023/07/21 00:13:39;;;;;;;4.07;3.53;;;;;;;17.12;63.61;100159.72;20677817;28;20259;-78
2023/07/21 00:23:44;;;;;;;4.03;3.72;;;;;;;17.42;60.21;100151.34;20718424;28;20216;-79
2023/07/21 00:33:47;;;;;;;4.65;3.92;;;;;;;17.31;61.74;100147.47;20703065;28;20224;-79
2023/07/21 00:43:51;;;;;;;4.90;4.47;;;;;;;17.17;63.53;100128.13;20700565;28;20281;-79
2023/07/21 00:53:54;;;;;;;4.07;3.78;;;;;;;17.18;61.93;100118.38;20703554;28;20257;-79
2023/07/21 01:03:57;;;;;;;4.95;4.55;;;;;;;17.13;62.53;100109.38;20676865;28;20459;-79
2023/07/21 01:14:04;;;;;;;4.93;4.47;;;;;;;17.11;62.70;100108.91;20695639;28;20205;-80
2023/07/21 01:24:12;;;;;;;4.13;3.75;;;;;;;17.09;61.82;100100.78;20694964;28;20720;-80
2023/07/21 01:34:16;;;;;;;5.37;4.87;;;;;;;17.00;62.35;100097.38;20696224;28;20198;-80
2023/07/21 01:44:21;;;;;;;7.03;4.93;;;;;;;17.13;62.47;100076.06;20683223;28;20610;-80
2023/07/21 01:54:36;;;;;;;5.03;4.57;;;;;;;16.89;62.57;100076.41;20746818;28;20256;-79
2023/07/21 02:04:38;;;;;;;5.75;5.22;;;;;;;17.18;61.22;100074.91;20723662;28;20221;-80
2023/07/21 02:14:41;;;;;;;6.13;5.53;;;;;;;16.70;63.79;100063.09;20713924;28;20201;-79
2023/07/21 02:24:43;;;;;;;6.43;5.82;;;;;;;16.98;63.58;100062.81;20728242;28;20556;-79
2023/07/21 02:34:47;;;;;;;5.45;5.03;;;;;;;17.28;61.57;100047.91;20710467;28;20328;-78
2023/07/21 02:44:49;;;;;;;6.23;5.63;;;;;;;16.99;64.20;100038.88;20661736;28;20266;-79
2023/07/21 02:54:52;;;;;;;5.72;5.22;;;;;;;16.92;62.32;100035.88;20708780;28;20233;-80
2023/07/21 03:04:54;;;;;;;5.80;5.30;;;;;;;16.69;63.36;100049.28;20693195;28;20278;-80
2023/07/21 03:14:58;;;;;;;6.53;6.03;;;;;;;16.79;61.94;100040.13;20709544;28;20189;-79
2023/07/21 03:25:10;;;;;;;6.45;5.85;;;;;;;16.87;62.00;100030.53;20738574;28;20621;-80
2023/07/21 03:35:14;;;;;;;7.22;6.63;;;;;;;16.70;63.21;100039.56;20684299;28;20241;-80
2023/07/21 03:45:19;;;;;;;7.15;6.28;;;;;;;16.79;61.76;100035.25;20722239;28;20213;-80
2023/07/21 03:55:23;;;;;;;7.32;6.47;;;;;;;16.72;62.18;100040.00;20698542;28;20237;-80
2023/07/21 04:05:25;;;;;;;7.95;6.82;;;;;;;16.39;62.84;100032.03;20682796;28;20773;-81
2023/07/21 04:15:28;;;;;;;6.90;6.30;;;;;;;16.54;62.95;100027.47;20716572;28;20542;-82
2023/07/21 04:25:32;;;;;;;7.55;6.75;;;;;;;16.86;60.79;100028.88;20680244;28;20632;-77
2023/07/21 04:35:35;;;;;;;6.95;6.35;;;;;;;16.79;60.64;100025.91;20677495;28;20222;-79
2023/07/21 04:45:44;;;;;;;7.80;7.05;;;;;;;17.20;59.36;100036.38;20584280;28;20266;-79
2023/07/21 04:55:56;;;;;;;9.97;6.87;;;;;;;16.47;60.06;100031.81;20553312;28;20314;-80
2023/07/21 05:06:00;;;;;;;9.20;7.53;;;;;;;16.24;60.62;100033.75;20524482;28;20296;-80
2023/07/21 05:16:03;;;;;;;12.73;8.48;;;;;;;16.82;59.05;100043.03;20547984;28;20250;-79
2023/07/21 05:26:16;;;;;;;12.40;11.20;;;;;;;16.81;59.26;100052.75;20551843;28;20277;-81
2023/07/21 05:36:19;;;;;;;21.80;13.30;;;;;;;17.11;58.36;100038.66;20545690;28;20261;-82
2023/07/21 05:46:21;;;;;;;13.90;12.50;;;;;;;16.71;59.70;100046.88;20541901;28;20215;-82
2023/07/21 05:56:39;;;;;;;16.48;12.23;;;;;;;17.24;57.38;100036.47;20552055;28;20233;-76
2023/07/21 06:07:02;;;;;;;14.03;11.40;;;;;;;17.42;56.43;100042.41;20575166;28;20222;-77
2023/07/21 06:17:26;;;;;;;13.98;12.35;;;;;;;17.55;56.32;100035.31;20535878;28;20223;-77
2023/07/21 06:27:29;;;;;;;13.23;11.83;;;;;;;17.90;55.38;100024.44;20555147;28;20273;-77
2023/07/21 06:37:33;;;;;;;13.10;11.45;;;;;;;17.08;56.57;100050.78;20569969;28;20507;-78
2023/07/21 06:47:55;;;;;;;12.65;10.98;;;;;;;17.02;57.35;100035.25;20575391;28;20217;-77
2023/07/21 06:58:27;;;;;;;16.75;11.93;;;;;;;17.46;56.00;100034.78;20634581;28;20505;-77
2023/07/21 07:08:29;;;;;;;13.30;11.18;;;;;;;18.36;54.37;100018.50;20618481;28;20253;-78
2023/07/21 07:18:32;;;;;;;12.32;10.35;;;;;;;18.36;53.05;100021.38;20604119;28;20546;-78
2023/07/21 07:28:35;;;;;;;12.25;10.27;;;;;;;18.48;51.83;100018.25;20630845;28;20218;-80
2023/07/21 07:38:38;;;;;;;15.10;11.35;;;;;;;18.98;51.02;100015.91;20616876;28;20600;-80
2023/07/21 07:48:40;;;;;;;11.88;10.35;;;;;;;18.93;50.88;100013.44;20609194;28;20362;-79
2023/07/21 07:58:43;;;;;;;9.40;8.38;;;;;;;19.18;49.87;100007.94;20630337;28;20444;-79
2023/07/21 08:08:46;;;;;;;11.60;8.95;;;;;;;19.49;48.86;100012.25;20623926;28;20276;-80
2023/07/21 08:18:48;;;;;;;10.75;7.88;;;;;;;19.74;48.17;100001.81;20619744;28;20747;-78
2023/07/21 08:28:52;;;;;;;10.13;7.35;;;;;;;19.23;48.27;100007.53;20614650;28;20218;-80
2023/07/21 08:38:55;;;;;;;7.43;6.80;;;;;;;19.64;45.82;100002.56;20608301;28;20653;-78
2023/07/21 08:49:00;;;;;;;10.00;6.80;;;;;;;20.51;43.18;99999.69;20595054;28;20218;-79
2023/07/21 08:59:02;;;;;;;7.32;6.65;;;;;;;20.89;41.34;99992.41;20605097;28;20262;-80
2023/07/21 09:09:05;;;;;;;7.97;6.13;;;;;;;20.80;42.41;99989.13;20633236;28;20704;-78
2023/07/21 09:19:09;;;;;;;7.70;5.30;;;;;;;20.73;40.86;99985.03;20580671;28;20194;-82
2023/07/21 09:29:17;;;;;;;5.78;5.18;;;;;;;20.78;41.01;99985.88;20622887;28;20279;-81
2023/07/21 09:39:20;;;;;;;6.68;4.85;;;;;;;19.93;41.06;99992.97;20598872;28;20201;-81
2023/07/21 09:49:22;;;;;;;6.38;5.78;;;;;;;20.79;39.96;99993.19;20606235;28;20230;-81
2023/07/21 09:59:26;;;;;;;7.25;5.80;;;;;;;20.24;41.40;99984.91;20610662;28;20265;-80
2023/07/21 10:09:32;;;;;;;7.00;5.75;;;;;;;20.80;41.99;99989.13;20620709;28;20280;-79
2023/07/21 10:19:42;;;;;;;4.18;3.72;;;;;;;20.82;40.43;99980.97;20618677;28;20260;-81
2023/07/21 10:29:53;;;;;;;5.25;4.13;;;;;;;20.19;40.10;99973.88;20616560;28;20507;-81
2023/07/21 10:39:56;;;;;;;3.83;2.90;;;;;;;20.82;37.53;99969.50;20621962;28;20193;-82
2023/07/21 10:49:59;;;;;;;4.47;2.92;;;;;;;20.12;37.24;99971.00;20624505;28;20284;-82
2023/07/21 11:00:04;;;;;;;3.75;3.25;;;;;;;20.49;38.27;99974.38;20622259;28;20264;-82
2023/07/21 11:10:07;;;;;;;5.72;3.10;;;;;;;21.11;37.06;99971.16;20602524;28;20579;-81
2023/07/21 11:20:10;;;;;;;3.35;3.00;;;;;;;21.24;36.48;99958.09;20643473;28;20190;-81
2023/07/21 11:30:17;;;;;;;3.88;3.58;;;;;;;21.37;35.85;99947.84;20621883;28;20264;-80
2023/07/21 11:40:25;;;;;;;5.28;2.97;;;;;;;21.61;36.30;99937.53;20606776;28;20206;-81
2023/07/21 11:50:28;;;;;;;3.33;3.05;;;;;;;22.81;33.69;99907.41;20600740;28;20230;-80
2023/07/21 12:00:31;;;;;;;3.35;2.75;;;;;;;21.55;34.51;99921.22;20598203;28;20206;-81
2023/07/21 12:10:34;;;;;;;3.05;2.72;;;;;;;21.61;32.85;99900.31;20607396;28;20193;-81
2023/07/21 12:20:36;;;;;;;3.67;2.63;;;;;;;22.59;32.48;99883.00;20636920;28;20214;-82
2023/07/21 12:30:39;;;;;;;3.50;2.13;;;;;;;22.66;32.68;99897.28;20625018;28;20198;-81
2023/07/21 12:40:42;;;;;;;2.75;2.55;;;;;;;21.43;33.04;99883.19;20623981;28;20555;-81
2023/07/21 12:50:45;;;;;;;1.70;1.60;;;;;;;21.73;33.91;99888.41;20605752;28;20218;-80
2023/07/21 13:00:47;;;;;;;2.15;1.10;;;;;;;21.60;34.04;99909.31;20602502;28;20272;-79
2023/07/21 13:10:50;;;;;;;4.78;2.40;;;;;;;20.03;41.89;99912.19;20597990;28;20337;-80
2023/07/21 13:20:52;;;;;;;4.05;2.40;;;;;;;20.86;41.29;99913.97;20595018;28;20218;-80
2023/07/21 13:30:55;;;;;;;4.03;2.70;;;;;;;20.92;40.91;99928.66;20608939;28;20194;-80
2023/07/21 13:40:58;;;;;;;5.80;2.70;;;;;;;21.70;38.25;99917.06;20612922;28;20276;-80
2023/07/21 13:51:01;;;;;;;4.15;2.42;;;;;;;20.62;37.78;99914.78;20612042;28;20535;-81
2023/07/21 14:01:03;;;;;;;2.22;1.90;;;;;;;21.50;35.98;99924.50;20627075;28;20222;-80
2023/07/21 14:11:06;;;;;;;5.93;3.67;;;;;;;18.91;45.50;100002.41;20586793;28;20198;-80
2023/07/21 14:21:09;;;;;;;10.02;8.15;;;;;;;17.31;59.99;100018.69;20608239;28;20210;-76
2023/07/21 14:31:11;;;;;;;9.30;8.00;;;;;;;16.89;60.15;100018.78;20584750;28;20592;-76
2023/07/21 14:41:14;;;;;;;7.30;6.60;;;;;;;17.28;60.52;100020.25;20559453;28;20503;-77
2023/07/21 14:51:18;;;;;;;6.55;6.00;;;;;;;18.36;57.31;100021.38;20622950;28;20288;-77
2023/07/21 15:01:21;;;;;;;7.82;7.10;;;;;;;18.07;57.95;100023.03;20621278;28;20265;-76
2023/07/21 15:11:24;;;;;;;6.00;5.50;;;;;;;18.59;55.68;100007.78;20603112;28;20198;-76
2023/07/21 15:21:26;;;;;;;5.90;5.13;;;;;;;18.37;55.57;100020.16;20575343;28;20610;-76
2023/07/21 15:42:48;;;;;;;5.35;4.70;;;;;;;19.05;50.63;100027.38;20609766;28;20246;-77
2023/07/21 15:52:51;;;;;;;5.70;5.20;;;;;;;19.01;51.54;100026.53;20625160;28;20288;-77
2023/07/21 16:02:54;;;;;;;6.25;5.68;;;;;;;19.16;49.52;100039.69;20611653;28;20264;-77
2023/07/21 16:12:56;;;;;;;8.80;6.43;;;;;;;19.13;51.85;100046.19;20603562;28;20202;-85
2023/07/21 16:22:59;;;;;;;9.25;6.70;;;;;;;18.81;51.95;100050.78;20615833;28;20226;-94
2023/07/21 16:33:02;;;;;;;5.47;4.55;;;;;;;19.28;46.67;100053.69;20622995;28;20225;-91
2023/07/21 16:43:05;;;;;;;5.00;3.83;;;;;;;18.68;44.98;100058.81;20616051;28;20221;-89
2023/07/21 16:53:10;;;;;;;4.07;3.75;;;;;;;19.12;47.89;100063.69;20629355;28;20284;-92
2023/07/21 17:03:13;;;;;;;5.53;3.72;;;;;;;19.13;45.88;100065.34;20638219;28;20222;-92
2023/07/21 17:13:17;;;;;;;5.00;3.35;;;;;;;19.06;45.50;100073.84;20624958;28;20252;-82
2023/07/21 17:23:21;;;;;;;5.40;3.20;;;;;;;19.00;43.91;100076.22;20628159;28;20247;-80
2023/07/21 17:33:24;;;;;;;3.42;3.10;;;;;;;20.00;43.56;100075.81;20570076;28;20468;-79
2023/07/21 17:43:27;;;;;;;3.47;2.72;;;;;;;19.04;43.05;100081.97;20602278;28;20217;-81
2023/07/21 17:53:29;;;;;;;2.13;1.92;;;;;;;19.13;43.17;100086.13;20613741;28;20269;-82
2023/07/21 18:03:32;;;;;;;9.68;2.30;;;;;;;18.95;44.49;100096.56;20620467;28;20325;-79
2023/07/21 18:13:35;;;;;;;3.03;2.22;;;;;;;19.37;45.17;100101.84;20625293;28;20256;-81
2023/07/21 18:23:37;;;;;;;2.65;2.17;;;;;;;18.94;44.21;100107.13;20601890;28;20292;-80
2023/07/21 18:33:40;;;;;;;6.47;2.75;;;;;;;19.41;44.52;100101.88;20607845;28;20244;-81
2023/07/21 18:43:43;;;;;;;5.65;3.10;;;;;;;19.42;42.95;100110.06;20600069;28;20279;-80
2023/07/21 18:53:45;;;;;;;3.42;2.58;;;;;;;18.91;44.33;100113.63;20598617;28;20238;-79
2023/07/21 19:03:48;;;;;;;3.80;2.72;;;;;;;18.50;45.60;100120.44;20645460;28;20268;-79
2023/07/21 19:13:51;;;;;;;3.65;3.15;;;;;;;18.88;45.75;100127.81;20607542;28;20657;-78
2023/07/21 19:23:54;;;;;;;5.65;3.60;;;;;;;18.46;47.56;100162.28;20617608;28;20221;-78
2023/07/21 19:33:57;;;;;;;7.45;4.68;;;;;;;17.54;52.69;100187.28;20603001;28;20252;-78
2023/07/21 19:43:59;;;;;;;7.47;5.68;;;;;;;17.89;52.90;100187.91;20588388;28;20257;-79
2023/07/21 19:54:02;;;;;;;8.93;6.68;;;;;;;17.52;52.19;100207.63;20647266;28;20233;-79
2023/07/21 20:04:06;;;;;;;9.27;6.75;;;;;;;17.30;52.51;100218.97;20616730;28;20288;-78
2023/07/21 20:14:08;;;;;;;9.88;6.88;;;;;;;17.03;54.32;100227.34;20605870;28;20201;-80
2023/07/21 20:24:11;;;;;;;8.95;6.97;;;;;;;16.88;53.66;100239.66;20599066;28;20202;-80
2023/07/21 20:34:16;;;;;;;9.32;7.43;;;;;;;16.47;52.83;100252.53;20607085;28;20591;-80
2023/07/21 20:44:19;;;;;;;10.20;7.72;;;;;;;16.49;53.55;100272.88;20601213;28;20253;-80
2023/07/21 20:54:22;;;;;;;10.57;7.72;;;;;;;16.98;50.77;100281.69;20585420;28;20292;-81
2023/07/21 21:04:27;;;;;;;8.52;7.03;;;;;;;16.76;49.79;100288.09;20583758;28;20268;-81
2023/07/21 21:14:29;;;;;;;8.93;7.00;;;;;;;16.78;50.12;100299.91;20602527;28;20259;-81
2023/07/21 21:24:36;;;;;;;8.87;7.53;;;;;;;16.25;52.95;100313.66;20629504;28;20479;-78
2023/07/21 21:34:39;;;;;;;11.27;8.20;;;;;;;16.34;52.87;100302.94;20626684;28;20210;-81
2023/07/21 21:44:41;;;;;;;11.13;8.77;;;;;;;16.12;52.92;100315.78;20611632;28;20562;-79
2023/07/21 21:54:45;;;;;;;13.87;8.90;;;;;;;15.60;53.08;100321.66;20628659;28;20484;-78
2023/07/21 22:04:48;;;;;;;12.90;7.77;;;;;;;15.69;51.60;100330.84;20613371;28;20221;-79
2023/07/21 22:14:52;;;;;;;9.00;7.80;;;;;;;16.31;49.25;100326.41;20616802;28;20268;-79
2023/07/21 22:24:59;;;;;;;9.60;6.60;;;;;;;16.39;48.19;100331.03;20598505;28;20222;-79
2023/07/21 22:35:03;;;;;;;8.50;6.47;;;;;;;15.40;50.54;100329.22;20603364;28;20198;-80
2023/07/21 22:45:07;;;;;;;8.70;6.97;;;;;;;15.70;49.05;100332.50;20627006;28;20233;-80
2023/07/21 22:55:11;;;;;;;9.85;6.28;;;;;;;15.76;48.50;100339.56;20620987;28;20227;-80
2023/07/21 23:05:14;;;;;;;8.95;6.30;;;;;;;15.72;48.32;100347.13;20643964;28;20221;-79
2023/07/21 23:15:17;;;;;;;7.78;5.90;;;;;;;15.67;49.22;100349.41;20604600;28;20269;-80
2023/07/21 23:25:19;;;;;;;8.37;6.77;;;;;;;15.93;48.08;100348.94;20625310;28;20222;-79
2023/07/21 23:35:22;;;;;;;8.07;6.35;;;;;;;15.81;49.15;100344.16;20605321;28;20202;-79
2023/07/21 23:45:25;;;;;;;8.35;6.18;;;;;;;15.44;50.25;100347.19;20588462;28;20247;-79
2023/07/21 23:55:29;;;;;;;9.57;6.20;;;;;;;15.48;48.78;100352.09;20544909;28;20222;-79
